Aviation Digital Data Service (ADDS)

Output produced by METARs form (1032 UTC 07 December 2016)
found at http://aviationweather.gov/adds/metars/
 
KAND 070537Z 0706/0806 27004KT 3SM BR BKN003 OVC020 
     TEMPO 0706/0709 1SM BR OVC002 
     FM071200 VRB02KT 3SM BR BKN015 
     FM071500 07003KT P6SM BKN040 
     FM072000 17004KT P6SM BKN025 
     FM080200 00000KT 4SM BR BKN025